WMKJ/JHB METAR and TAF weather

Enter ICAO airport designator
Station Type Date Time Source
WMKJ METAR 2020/01/19 14:00 UTC NOAA

WMKJ 191400Z VRB02KT 9999 FEW020 26/24 Q1012


Station Type Date Time Source
WMKJ Decoded METAR 2020/01/19 14:00 UTC NOAA

Johore Bharu / Senai, Malaysia (WMKJ) 01-38N 103-40E 40M
Jan 19, 2020 - 09:00 AM EST / 2020.01.19 1400 UTC
Wind: Variable at 2 MPH (2 KT):0
Visibility: greater than 7 mile(s):0
Sky conditions: mostly clear
Temperature: 78 F (26 C)
Dew Point: 75 F (24 C)
Relative Humidity: 88%
Pressure (altimeter): 29.88 in. Hg (1012 hPa)
ob: WMKJ 191400Z VRB02KT 9999 FEW020 26/24 Q1012
cycle: 14

Station Type Date Time Source
WMKJ TAF 2020/01/19 12:09 UTC NOAA

TAF TAF WMKJ 191100Z 1912/2012 05008KT 9999 FEW018 PROB30
TEMPO 2006/2010 4000 SHRA FEW010 FEW017CB SCT018

Example: see airport list